Wetterdaten: Woche 08.02.16 - 14.02.16 (KW6)
Datum Zeit Temp. A. Feuchte A. Luftdruck Regen Wind Richtung Taupunkt Windchill Windben
08.02.2016 00:00 4,1 C 79 % 1011,9 hPa 0,0 l/m 7,8 km/h (2 Bft) O-NO 0,8 C 2,6 C 14,4 km/h (3 Bft)
08.02.2016 01:00 4,5 C 77 % 1011,3 hPa 0,0 l/m 8,4 km/h (2 Bft) O-NO 0,8 C 2,7 C 15,1 km/h (3 Bft)
08.02.2016 02:00 4,3 C 77 % 1010,6 hPa 0,0 l/m 8,5 km/h (2 Bft) NO 0,7 C 2,4 C 16,1 km/h (3 Bft)
08.02.2016 03:00 4,4 C 76 % 1009,9 hPa 0,0 l/m 10,9 km/h (2 Bft) NO 0,6 C 0,9 C 22,0 km/h (4 Bft)
08.02.2016 04:00 4,6 C 74 % 1008,9 hPa 0,0 l/m 6,6 km/h (2 Bft) O-NO 0,4 C 4,3 C 16,2 km/h (3 Bft)
08.02.2016 05:00 5,0 C 71 % 1008,1 hPa 0,0 l/m 6,7 km/h (2 Bft) O-NO 0,1 C 4,5 C 15,3 km/h (3 Bft)
08.02.2016 06:00 5,6 C 69 % 1007,7 hPa 0,0 l/m 8,3 km/h (2 Bft) NO 0,3 C 4,0 C 17,3 km/h (3 Bft)
08.02.2016 07:00 6,3 C 72 % 1006,9 hPa 0,0 l/m 10,6 km/h (2 Bft) O-NO 1,7 C 3,3 C 22,9 km/h (4 Bft)
08.02.2016 08:00 7,2 C 75 % 1006,5 hPa 0,0 l/m 12,3 km/h (2 Bft) O 3,0 C 3,2 C 24,5 km/h (4 Bft)
08.02.2016 09:00 7,9 C 73 % 1005,8 hPa 0,0 l/m 10,7 km/h (2 Bft) NO 3,4 C 4,9 C 21,0 km/h (4 Bft)
08.02.2016 10:00 8,9 C 69 % 1004,4 hPa 0,0 l/m 9,9 km/h (2 Bft) O-NO 3,5 C 6,5 C 23,0 km/h (4 Bft)
08.02.2016 11:00 10,1 C 65 % 1003,5 hPa 0,0 l/m 13,1 km/h (3 Bft) O-NO 3,8 C 6,2 C 27,4 km/h (5 Bft)
08.02.2016 12:00 9,8 C 68 % 1003,3 hPa 0,0 l/m 13,5 km/h (3 Bft) O-NO 4,2 C 5,7 C 29,0 km/h (5 Bft)
08.02.2016 13:00 8,4 C 78 % 1002,4 hPa 0,3 l/m 12,1 km/h (2 Bft) O 4,7 C 4,6 C 24,7 km/h (4 Bft)
08.02.2016 14:00 8,4 C 80 % 1002,3 hPa 0,8 l/m 15,5 km/h (3 Bft) O-NO 5,1 C 3,2 C 31,7 km/h (5 Bft)
08.02.2016 15:00 7,8 C 84 % 1002,4 hPa 1,5 l/m 13,6 km/h (3 Bft) O-NO 5,3 C 3,2 C 28,5 km/h (5 Bft)
08.02.2016 16:00 6,5 C 90 % 1003,0 hPa 4,3 l/m 13,5 km/h (3 Bft) O-NO 5,0 C 1,7 C 32,9 km/h (5 Bft)
08.02.2016 17:00 6,0 C 92 % 1003,7 hPa 3,6 l/m 10,8 km/h (2 Bft) O-NO 4,8 C 2,8 C 26,4 km/h (4 Bft)
08.02.2016 18:00 5,9 C 92 % 1004,5 hPa 10,2 l/m 9,5 km/h (2 Bft) NO 4,8 C 3,5 C 21,2 km/h (4 Bft)
08.02.2016 19:00 4,6 C 93 % 1005,7 hPa 3,3 l/m 7,2 km/h (2 Bft) NO 3,6 C 3,4 C 19,7 km/h (3 Bft)
08.02.2016 20:00 5,1 C 93 % 1006,7 hPa 2,3 l/m 8,3 km/h (2 Bft) O 4,1 C 3,4 C 18,9 km/h (3 Bft)
08.02.2016 21:00 4,8 C 92 % 1007,1 hPa 5,3 l/m 9,3 km/h (2 Bft) O-NO 3,7 C 2,5 C 24,3 km/h (4 Bft)
08.02.2016 22:00 4,6 C 93 % 1007,6 hPa 0,0 l/m 5,9 km/h (2 Bft) O-NO 3,5 C 4,0 C 14,7 km/h (3 Bft)
08.02.2016 23:00 4,8 C 93 % 1008,2 hPa 0,5 l/m 5,4 km/h (1 Bft) O-NO 3,8 C 4,6 C 12,8 km/h (3 Bft)
09.02.2016 00:00 4,8 C 93 % 1008,3 hPa 0,0 l/m 6,8 km/h (2 Bft) O 3,7 C 4,0 C 14,5 km/h (3 Bft)
09.02.2016 01:00 5,0 C 91 % 1008,0 hPa 0,0 l/m 9,2 km/h (2 Bft) O-NO 3,6 C 2,7 C 22,0 km/h (4 Bft)
09.02.2016 02:00 4,9 C 88 % 1007,8 hPa 0,3 l/m 8,7 km/h (2 Bft) O-NO 3,0 C 3,1 C 20,4 km/h (4 Bft)
09.02.2016 03:00 4,2 C 91 % 1007,5 hPa 1,3 l/m 7,7 km/h (2 Bft) O-NO 2,9 C 2,8 C 14,4 km/h (3 Bft)
09.02.2016 04:00 4,8 C 92 % 1006,6 hPa 0,5 l/m 8,8 km/h (2 Bft) O-NO 3,6 C 2,7 C 16,0 km/h (3 Bft)
09.02.2016 05:00 5,2 C 90 % 1006,1 hPa 0,5 l/m 9,1 km/h (2 Bft) O-NO 3,8 C 3,0 C 17,3 km/h (3 Bft)
09.02.2016 06:00 5,5 C 89 % 1005,4 hPa 0,3 l/m 9,2 km/h (2 Bft) O-NO 3,8 C 3,2 C 19,0 km/h (3 Bft)
09.02.2016 07:00 5,5 C 91 % 1004,4 hPa 1,5 l/m 9,1 km/h (2 Bft) O 4,2 C 3,3 C 22,3 km/h (4 Bft)
09.02.2016 08:00 5,0 C 94 % 1002,7 hPa 2,3 l/m 5,8 km/h (2 Bft) O-NO 4,0 C 4,7 C 14,2 km/h (3 Bft)
09.02.2016 09:00 4,9 C 95 % 1001,2 hPa 0,5 l/m 3,7 km/h (1 Bft) NO 4,1 C 4,9 C 7,8 km/h (2 Bft)
09.02.2016 10:00 5,5 C 94 % 999,2 hPa 0,5 l/m 4,8 km/h (1 Bft) O-NO 4,6 C 5,5 C 12,4 km/h (2 Bft)
09.02.2016 11:00 7,0 C 91 % 997,2 hPa 0,0 l/m 6,2 km/h (2 Bft) O-NO 5,6 C 6,8 C 14,1 km/h (3 Bft)
09.02.2016 12:00 8,0 C 87 % 995,8 hPa 0,3 l/m 6,4 km/h (2 Bft) NO 6,0 C 7,5 C 14,8 km/h (3 Bft)
09.02.2016 13:00 7,6 C 90 % 994,0 hPa 3,0 l/m 8,6 km/h (2 Bft) NO 6,1 C 5,9 C 18,4 km/h (3 Bft)
09.02.2016 14:00 7,2 C 91 % 992,2 hPa 0,8 l/m 7,7 km/h (2 Bft) N-NO 5,8 C 6,0 C 16,0 km/h (3 Bft)
09.02.2016 15:00 8,0 C 88 % 991,0 hPa 0,0 l/m 9,5 km/h (2 Bft) NO 6,1 C 5,8 C 19,7 km/h (3 Bft)
09.02.2016 16:00 8,1 C 87 % 989,6 hPa 0,3 l/m 8,4 km/h (2 Bft) NO 6,0 C 6,6 C 19,6 km/h (3 Bft)
09.02.2016 17:00 8,1 C 83 % 988,7 hPa 0,3 l/m 11,0 km/h (2 Bft) NO 5,4 C 5,0 C 24,1 km/h (4 Bft)
09.02.2016 18:00 7,0 C 84 % 989,3 hPa 4,3 l/m 12,5 km/h (2 Bft) O-NO 4,5 C 2,9 C 28,0 km/h (5 Bft)
09.02.2016 19:00 4,8 C 91 % 990,0 hPa 0,8 l/m 9,0 km/h (2 Bft) N-NO 3,5 C 2,7 C 22,9 km/h (4 Bft)
09.02.2016 20:00 3,9 C 88 % 991,9 hPa 1,5 l/m 12,5 km/h (2 Bft) O-NO 2,1 C -0,7 C 27,5 km/h (5 Bft)
09.02.2016 21:00 2,2 C 88 % 992,9 hPa 0,3 l/m 9,0 km/h (2 Bft) O-NO 0,4 C -0,3 C 17,4 km/h (3 Bft)
09.02.2016 22:00 2,2 C 86 % 993,6 hPa 0,0 l/m 5,8 km/h (2 Bft) O-NO 0,2 C 1,6 C 10,9 km/h (2 Bft)
09.02.2016 23:00 1,3 C 91 % 994,5 hPa 1,0 l/m 8,8 km/h (2 Bft) O-NO 0,1 C -0,9 C 16,1 km/h (3 Bft)
10.02.2016 00:00 0,7 C 91 % 994,7 hPa 0,3 l/m 8,3 km/h (2 Bft) O-NO -0,6 C -1,3 C 16,2 km/h (3 Bft)
10.02.2016 01:00 0,3 C 93 % 995,0 hPa 0,0 l/m 5,9 km/h (2 Bft) O-NO -0,7 C -0,3 C 11,6 km/h (2 Bft)
10.02.2016 02:00 0,0 C 95 % 994,9 hPa 0,0 l/m 4,7 km/h (1 Bft) O-NO -0,7 C -0,2 C 9,1 km/h (2 Bft)
10.02.2016 03:00 -0,1 C 96 % 995,0 hPa 0,0 l/m 4,0 km/h (1 Bft) NO -0,7 C -0,1 C 9,6 km/h (2 Bft)
10.02.2016 04:00 -0,1 C 95 % 995,4 hPa 0,0 l/m 3,3 km/h (1 Bft) O -0,8 C -0,1 C 12,2 km/h (2 Bft)
10.02.2016 05:00 -0,2 C 95 % 996,5 hPa 0,0 l/m 2,0 km/h (1 Bft) O -0,9 C -0,2 C 6,5 km/h (2 Bft)
10.02.2016 06:00 -0,3 C 95 % 997,1 hPa 0,0 l/m 2,9 km/h (1 Bft) O -1,0 C -0,3 C 7,7 km/h (2 Bft)
10.02.2016 07:00 -0,3 C 95 % 997,8 hPa 0,0 l/m 2,1 km/h (1 Bft) O -1,0 C -0,3 C 7,4 km/h (2 Bft)
10.02.2016 08:00 -0,3 C 94 % 998,4 hPa 0,0 l/m 3,6 km/h (1 Bft) O -1,2 C -0,3 C 10,3 km/h (2 Bft)
10.02.2016 09:00 -0,0 C 94 % 998,9 hPa 0,0 l/m 4,3 km/h (1 Bft) O -1,0 C -0,1 C 10,7 km/h (2 Bft)
10.02.2016 10:00 0,3 C 93 % 999,3 hPa 0,0 l/m 7,5 km/h (2 Bft) O-NO -0,7 C -1,0 C 17,3 km/h (3 Bft)
10.02.2016 11:00 0,1 C 93 % 1000,0 hPa 0,0 l/m 7,4 km/h (2 Bft) O-NO -0,8 C -1,2 C 16,6 km/h (3 Bft)
10.02.2016 12:00 0,1 C 94 % 1000,2 hPa 0,3 l/m 6,8 km/h (2 Bft) O-NO -0,8 C -0,7 C 14,5 km/h (3 Bft)
10.02.2016 13:00 0,2 C 94 % 1000,2 hPa 0,3 l/m 7,4 km/h (2 Bft) NO -0,7 C -1,1 C 18,0 km/h (3 Bft)
10.02.2016 14:00 0,4 C 92 % 1000,4 hPa 0,5 l/m 6,9 km/h (2 Bft) O-NO -0,7 C -0,8 C 17,4 km/h (3 Bft)
10.02.2016 15:00 0,7 C 91 % 1000,6 hPa 0,3 l/m 7,5 km/h (2 Bft) O-NO -0,6 C -0,6 C 16,4 km/h (3 Bft)
10.02.2016 16:00 0,8 C 90 % 1001,3 hPa 0,5 l/m 8,7 km/h (2 Bft) O-NO -0,6 C -1,4 C 21,2 km/h (4 Bft)
10.02.2016 17:00 0,8 C 87 % 1002,2 hPa 0,3 l/m 7,3 km/h (2 Bft) O-NO -1,1 C -0,4 C 17,2 km/h (3 Bft)
10.02.2016 18:00 0,6 C 88 % 1003,0 hPa 0,0 l/m 6,9 km/h (2 Bft) O-NO -1,2 C -0,3 C 15,3 km/h (3 Bft)
10.02.2016 19:00 0,7 C 87 % 1003,8 hPa 0,3 l/m 6,0 km/h (2 Bft) O-NO -1,2 C 0,3 C 15,7 km/h (3 Bft)
10.02.2016 20:00 0,8 C 85 % 1004,3 hPa 0,0 l/m 6,1 km/h (2 Bft) O-NO -1,4 C 0,3 C 14,4 km/h (3 Bft)
10.02.2016 21:00 0,8 C 86 % 1004,7 hPa 0,0 l/m 7,5 km/h (2 Bft) O -1,3 C -0,6 C 15,8 km/h (3 Bft)
10.02.2016 22:00 0,5 C 89 % 1005,2 hPa 0,0 l/m 5,9 km/h (2 Bft) O-NO -1,2 C 0,1 C 16,0 km/h (3 Bft)
10.02.2016 23:00 -0,0 C 93 % 1005,6 hPa 0,0 l/m 6,3 km/h (2 Bft) O-NO -1,0 C -0,5 C 15,2 km/h (3 Bft)
11.02.2016 00:00 -0,2 C 94 % 1005,9 hPa 0,0 l/m 5,4 km/h (1 Bft) O-NO -1,0 C -0,5 C 11,8 km/h (2 Bft)
11.02.2016 01:00 -0,4 C 95 % 1006,4 hPa 0,0 l/m 5,8 km/h (2 Bft) O-NO -1,0 C -0,5 C 14,8 km/h (3 Bft)
11.02.2016 02:00 -0,3 C 95 % 1007,1 hPa 0,0 l/m 4,7 km/h (1 Bft) O -1,0 C -0,3 C 11,5 km/h (2 Bft)
11.02.2016 03:00 -0,4 C 95 % 1007,5 hPa 0,0 l/m 4,9 km/h (1 Bft) O-NO -1,1 C -0,5 C 11,2 km/h (2 Bft)
11.02.2016 04:00 -0,4 C 95 % 1007,7 hPa 0,0 l/m 5,3 km/h (1 Bft) O-NO -1,1 C -0,4 C 13,0 km/h (3 Bft)
11.02.2016 05:00 -0,3 C 94 % 1007,9 hPa 0,0 l/m 4,5 km/h (1 Bft) O-NO -1,1 C -0,3 C 11,1 km/h (2 Bft)
11.02.2016 06:00 -0,2 C 94 % 1008,2 hPa 0,0 l/m 3,3 km/h (1 Bft) O-NO -1,1 C -0,2 C 8,3 km/h (2 Bft)
11.02.2016 07:00 -0,1 C 94 % 1008,6 hPa 0,0 l/m 3,2 km/h (1 Bft) O-NO -1,0 C -0,1 C 8,0 km/h (2 Bft)
11.02.2016 08:00 0,0 C 94 % 1009,0 hPa 0,0 l/m 3,5 km/h (1 Bft) O-NO -0,9 C 0,0 C 8,7 km/h (2 Bft)
11.02.2016 09:00 0,3 C 93 % 1009,3 hPa 0,3 l/m 3,3 km/h (1 Bft) O-NO -0,7 C 0,3 C 6,7 km/h (2 Bft)
11.02.2016 10:00 0,9 C 90 % 1009,6 hPa 0,5 l/m 3,4 km/h (1 Bft) O-NO -0,6 C 0,9 C 8,1 km/h (2 Bft)
11.02.2016 11:00 1,8 C 86 % 1009,6 hPa 1,3 l/m 2,8 km/h (1 Bft) O -0,3 C 1,8 C 7,5 km/h (2 Bft)
11.02.2016 12:00 2,3 C 82 % 1009,3 hPa 1,3 l/m 4,2 km/h (1 Bft) O-NO -0,4 C 2,3 C 9,7 km/h (2 Bft)
11.02.2016 13:00 2,6 C 80 % 1008,6 hPa 1,0 l/m 3,9 km/h (1 Bft) NO -0,6 C 2,6 C 8,8 km/h (2 Bft)
11.02.2016 14:00 3,3 C 76 % 1008,1 hPa 1,0 l/m 2,8 km/h (1 Bft) O -0,4 C 3,3 C 6,4 km/h (2 Bft)
11.02.2016 15:00 3,6 C 75 % 1007,8 hPa 0,5 l/m 2,0 km/h (1 Bft) O-NO -0,3 C 3,6 C 4,0 km/h (1 Bft)
11.02.2016 16:00 3,0 C 84 % 1007,6 hPa 0,0 l/m 1,2 km/h (1 Bft) O-NO 0,5 C 3,0 C 3,2 km/h (1 Bft)
11.02.2016 17:00 0,8 C 93 % 1007,7 hPa 0,0 l/m 0,5 km/h (0 Bft) O -0,3 C 0,8 C 1,9 km/h (1 Bft)
11.02.2016 18:00 -0,2 C 94 % 1007,8 hPa 0,0 l/m 0,1 km/h (0 Bft) O -1,0 C -0,2 C 1,5 km/h (1 Bft)
11.02.2016 19:00 -0,6 C 96 % 1007,7 hPa 0,0 l/m 0,2 km/h (0 Bft) O -1,2 C -0,6 C 0,9 km/h (0 Bft)
11.02.2016 20:00 -1,0 C 95 % 1007,8 hPa 0,0 l/m 0,0 km/h (0 Bft) O -1,7 C -1,0 C 0,2 km/h (0 Bft)
11.02.2016 21:00 -1,2 C 96 % 1007,8 hPa 0,0 l/m 0,0 km/h (0 Bft) O -1,7 C -1,2 C 0,0 km/h (0 Bft)
11.02.2016 22:00 -1,2 C 96 % 1007,8 hPa 0,0 l/m 0,1 km/h (0 Bft) O -1,7 C -1,2 C 0,7 km/h (0 Bft)
11.02.2016 23:00 -1,5 C 96 % 1007,5 hPa 0,0 l/m 0,0 km/h (0 Bft) O -2,0 C -1,5 C 0,1 km/h (0 Bft)
12.02.2016 00:00 -1,4 C 96 % 1007,4 hPa 0,0 l/m 0,0 km/h (0 Bft) O -1,9 C -1,4 C 0,4 km/h (0 Bft)
12.02.2016 01:00 -1,2 C 97 % 1007,2 hPa 0,0 l/m 0,1 km/h (0 Bft) O -1,6 C -1,2 C 1,2 km/h (1 Bft)
12.02.2016 02:00 -1,4 C 96 % 1006,9 hPa 0,0 l/m 0,1 km/h (0 Bft) O -1,9 C -1,4 C 0,6 km/h (0 Bft)
12.02.2016 03:00 -1,3 C 96 % 1006,7 hPa 0,0 l/m 0,7 km/h (0 Bft) O -1,8 C -1,3 C 2,4 km/h (1 Bft)
12.02.2016 04:00 -1,0 C 96 % 1006,5 hPa 0,0 l/m 0,3 km/h (0 Bft) O -1,5 C -1,0 C 1,1 km/h (0 Bft)
12.02.2016 05:00 -1,0 C 95 % 1006,1 hPa 0,0 l/m 0,4 km/h (0 Bft) O -1,6 C -1,0 C 1,6 km/h (1 Bft)
12.02.2016 06:00 -0,9 C 95 % 1005,9 hPa 0,0 l/m 0,9 km/h (0 Bft) O -1,6 C -0,9 C 2,6 km/h (1 Bft)
12.02.2016 07:00 -1,4 C 95 % 1005,2 hPa 0,0 l/m 0,1 km/h (0 Bft) O-NO -2,1 C -1,4 C 0,5 km/h (0 Bft)
12.02.2016 08:00 -1,3 C 95 % 1004,4 hPa 0,0 l/m 0,6 km/h (0 Bft) O-NO -2,0 C -1,3 C 2,0 km/h (1 Bft)
12.02.2016 09:00 0,1 C 90 % 1003,7 hPa 0,3 l/m 1,1 km/h (0 Bft) O-NO -1,3 C 0,1 C 2,4 km/h (1 Bft)
12.02.2016 10:00 1,5 C 85 % 1002,8 hPa 0,3 l/m 3,2 km/h (1 Bft) N-NO -0,7 C 1,5 C 8,2 km/h (2 Bft)
12.02.2016 11:00 2,1 C 80 % 1001,7 hPa 0,0 l/m 4,1 km/h (1 Bft) O-NO -1,0 C 2,1 C 10,4 km/h (2 Bft)
12.02.2016 12:00 3,1 C 75 % 1000,8 hPa 0,0 l/m 4,3 km/h (1 Bft) W-NW -1,0 C 3,1 C 9,6 km/h (2 Bft)
12.02.2016 13:00 2,8 C 75 % 999,0 hPa 0,0 l/m 3,8 km/h (1 Bft) W-NW -1,2 C 2,8 C 9,8 km/h (2 Bft)
12.02.2016 14:00 3,2 C 75 % 997,2 hPa 0,0 l/m 2,7 km/h (1 Bft) W-NW -0,9 C 3,2 C 6,2 km/h (2 Bft)
12.02.2016 15:00 3,3 C 74 % 996,2 hPa 0,0 l/m 2,4 km/h (1 Bft) W-NW -0,8 C 3,3 C 5,6 km/h (2 Bft)
12.02.2016 16:00 2,9 C 75 % 995,8 hPa 0,0 l/m 1,6 km/h (1 Bft) NW -1,0 C 2,9 C 4,9 km/h (1 Bft)
12.02.2016 17:00 2,1 C 81 % 995,5 hPa 0,0 l/m 2,2 km/h (1 Bft) N-NO -0,8 C 2,1 C 5,9 km/h (2 Bft)
12.02.2016 18:00 1,3 C 87 % 995,5 hPa 0,0 l/m 0,7 km/h (0 Bft) N-NW -0,5 C 1,3 C 2,2 km/h (1 Bft)
12.02.2016 19:00 0,4 C 94 % 995,4 hPa 0,0 l/m 0,2 km/h (0 Bft) W-NW -0,4 C 0,4 C 1,2 km/h (1 Bft)
12.02.2016 20:00 0,1 C 96 % 994,8 hPa 0,0 l/m 0,0 km/h (0 Bft) W-NW -0,5 C 0,1 C 0,7 km/h (0 Bft)
12.02.2016 21:00 0,1 C 96 % 994,5 hPa 0,0 l/m 0,0 km/h (0 Bft) W-NW -0,5 C 0,1 C 0,1 km/h (0 Bft)
12.02.2016 22:00 0,0 C 96 % 994,1 hPa 0,0 l/m 0,0 km/h (0 Bft) W-NW -0,5 C 0,0 C 0,0 km/h (0 Bft)
12.02.2016 23:00 0,2 C 96 % 993,8 hPa 0,0 l/m 0,8 km/h (0 Bft) W-NW -0,3 C 0,2 C 2,5 km/h (1 Bft)
13.02.2016 00:00 0,4 C 95 % 993,7 hPa 0,0 l/m 2,0 km/h (1 Bft) O-NO -0,3 C 0,4 C 3,9 km/h (1 Bft)
13.02.2016 01:00 0,3 C 96 % 993,8 hPa 0,0 l/m 1,4 km/h (1 Bft) O-NO -0,3 C 0,3 C 3,9 km/h (1 Bft)
13.02.2016 02:00 0,8 C 96 % 994,2 hPa 0,0 l/m 2,3 km/h (1 Bft) O-NO 0,2 C 0,8 C 5,7 km/h (2 Bft)
13.02.2016 03:00 0,8 C 96 % 994,7 hPa 0,0 l/m 2,2 km/h (1 Bft) O-NO 0,2 C 0,8 C 4,7 km/h (1 Bft)
13.02.2016 04:00 0,8 C 96 % 994,6 hPa 0,0 l/m 0,9 km/h (0 Bft) NO 0,3 C 0,8 C 3,2 km/h (1 Bft)
13.02.2016 05:00 1,1 C 97 % 994,8 hPa 0,0 l/m 1,4 km/h (1 Bft) O-NO 0,6 C 1,1 C 4,1 km/h (1 Bft)
13.02.2016 06:00 1,2 C 96 % 994,8 hPa 0,0 l/m 0,5 km/h (0 Bft) O-NO 0,6 C 1,2 C 1,6 km/h (1 Bft)
13.02.2016 07:00 1,1 C 97 % 994,6 hPa 0,0 l/m 0,3 km/h (0 Bft) O 0,6 C 1,1 C 1,9 km/h (1 Bft)
13.02.2016 08:00 1,2 C 97 % 994,4 hPa 0,8 l/m 0,1 km/h (0 Bft) O 0,8 C 1,2 C 1,0 km/h (0 Bft)
13.02.2016 09:00 1,4 C 96 % 994,1 hPa 0,8 l/m 1,3 km/h (1 Bft) N-NO 0,9 C 1,4 C 3,9 km/h (1 Bft)
13.02.2016 10:00 1,9 C 95 % 993,4 hPa 1,0 l/m 2,9 km/h (1 Bft) NO 1,2 C 1,9 C 7,4 km/h (2 Bft)
13.02.2016 11:00 2,8 C 94 % 992,6 hPa 1,5 l/m 1,8 km/h (1 Bft) NO 2,0 C 2,8 C 4,3 km/h (1 Bft)
13.02.2016 12:00 3,7 C 93 % 991,9 hPa 0,8 l/m 2,9 km/h (1 Bft) NO 2,7 C 3,7 C 6,6 km/h (2 Bft)
13.02.2016 13:00 4,5 C 91 % 990,7 hPa 0,3 l/m 2,5 km/h (1 Bft) O-NO 3,1 C 4,5 C 5,5 km/h (2 Bft)
13.02.2016 14:00 4,5 C 89 % 989,2 hPa 0,0 l/m 3,1 km/h (1 Bft) NW 2,9 C 4,5 C 8,4 km/h (2 Bft)
13.02.2016 15:00 4,5 C 89 % 988,5 hPa 0,0 l/m 4,9 km/h (1 Bft) NO 2,8 C 4,4 C 11,5 km/h (2 Bft)
13.02.2016 16:00 3,9 C 91 % 987,9 hPa 2,0 l/m 5,0 km/h (1 Bft) O 2,6 C 3,8 C 14,1 km/h (3 Bft)
13.02.2016 17:00 3,3 C 94 % 987,8 hPa 1,0 l/m 4,5 km/h (1 Bft) O-NO 2,4 C 3,3 C 10,3 km/h (2 Bft)
13.02.2016 18:00 3,3 C 94 % 987,7 hPa 0,0 l/m 3,8 km/h (1 Bft) O-NO 2,4 C 3,2 C 7,6 km/h (2 Bft)
13.02.2016 19:00 3,3 C 95 % 987,6 hPa 1,8 l/m 2,7 km/h (1 Bft) NO 2,6 C 3,3 C 6,0 km/h (2 Bft)
13.02.2016 20:00 3,2 C 94 % 987,2 hPa 2,8 l/m 5,7 km/h (2 Bft) O 2,3 C 3,0 C 13,2 km/h (3 Bft)
13.02.2016 21:00 2,8 C 95 % 986,9 hPa 2,3 l/m 4,5 km/h (1 Bft) O 2,1 C 2,5 C 11,2 km/h (2 Bft)
13.02.2016 22:00 4,6 C 93 % 986,9 hPa 1,8 l/m 9,4 km/h (2 Bft) O-NO 3,6 C 2,2 C 22,8 km/h (4 Bft)
13.02.2016 23:00 4,9 C 92 % 987,1 hPa 0,3 l/m 10,7 km/h (2 Bft) O-NO 3,7 C 1,6 C 23,3 km/h (4 Bft)
14.02.2016 00:00 5,1 C 90 % 987,0 hPa 0,0 l/m 10,7 km/h (2 Bft) O-NO 3,7 C 1,9 C 24,4 km/h (4 Bft)
14.02.2016 01:00 5,0 C 90 % 987,1 hPa 0,8 l/m 12,2 km/h (2 Bft) O 3,4 C 0,7 C 32,5 km/h (5 Bft)
14.02.2016 02:00 4,7 C 91 % 987,5 hPa 0,8 l/m 9,3 km/h (2 Bft) O-NO 3,3 C 2,3 C 21,4 km/h (4 Bft)
14.02.2016 03:00 4,8 C 89 % 987,8 hPa 0,0 l/m 9,8 km/h (2 Bft) O-NO 3,0 C 2,0 C 21,7 km/h (4 Bft)
14.02.2016 04:00 4,7 C 85 % 987,6 hPa 0,0 l/m 8,1 km/h (2 Bft) O 2,5 C 3,3 C 20,9 km/h (4 Bft)
14.02.2016 05:00 4,6 C 86 % 987,8 hPa 0,0 l/m 4,4 km/h (1 Bft) O-NO 2,4 C 4,5 C 11,7 km/h (2 Bft)
14.02.2016 06:00 4,4 C 87 % 987,8 hPa 0,0 l/m 3,3 km/h (1 Bft) O-NO 2,3 C 4,4 C 7,3 km/h (2 Bft)
14.02.2016 07:00 4,4 C 88 % 987,5 hPa 0,0 l/m 4,1 km/h (1 Bft) O-NO 2,6 C 4,4 C 9,8 km/h (2 Bft)
14.02.2016 08:00 4,4 C 89 % 987,4 hPa 0,0 l/m 2,6 km/h (1 Bft) O-NO 2,7 C 4,4 C 6,6 km/h (2 Bft)
14.02.2016 09:00 4,5 C 89 % 987,6 hPa 0,0 l/m 1,9 km/h (1 Bft) N-NO 2,9 C 4,5 C 3,7 km/h (1 Bft)
14.02.2016 10:00 4,4 C 91 % 988,1 hPa 0,5 l/m 2,5 km/h (1 Bft) O-NO 3,0 C 4,4 C 4,5 km/h (1 Bft)
14.02.2016 11:00 4,0 C 93 % 988,7 hPa 1,0 l/m 2,5 km/h (1 Bft) O 3,0 C 4,0 C 4,5 km/h (1 Bft)
14.02.2016 12:00 3,7 C 93 % 989,2 hPa 0,3 l/m 2,6 km/h (1 Bft) O 2,8 C 3,7 C 5,8 km/h (2 Bft)
14.02.2016 13:00 3,9 C 93 % 989,8 hPa 0,3 l/m 4,2 km/h (1 Bft) O-NO 2,8 C 3,9 C 9,9 km/h (2 Bft)
14.02.2016 14:00 3,6 C 94 % 990,7 hPa 0,0 l/m 3,4 km/h (1 Bft) O-NO 2,8 C 3,6 C 8,0 km/h (2 Bft)
14.02.2016 15:00 3,3 C 94 % 991,5 hPa 0,3 l/m 2,4 km/h (1 Bft) O 2,5 C 3,3 C 5,7 km/h (2 Bft)
14.02.2016 16:00 3,1 C 95 % 992,7 hPa 0,5 l/m 2,8 km/h (1 Bft) O-NO 2,4 C 3,1 C 7,2 km/h (2 Bft)
14.02.2016 17:00 2,9 C 95 % 993,8 hPa 0,0 l/m 2,9 km/h (1 Bft) O 2,1 C 2,9 C 6,3 km/h (2 Bft)
14.02.2016 18:00 2,7 C 95 % 994,5 hPa 0,3 l/m 2,1 km/h (1 Bft) O-NO 1,9 C 2,7 C 4,2 km/h (1 Bft)
14.02.2016 19:00 2,3 C 95 % 995,6 hPa 0,0 l/m 2,7 km/h (1 Bft) NO 1,6 C 2,3 C 6,5 km/h (2 Bft)
14.02.2016 20:00 2,3 C 95 % 996,4 hPa 0,3 l/m 2,3 km/h (1 Bft) NO 1,6 C 2,3 C 5,8 km/h (2 Bft)
14.02.2016 21:00 2,3 C 95 % 996,9 hPa 0,0 l/m 3,7 km/h (1 Bft) O 1,6 C 2,3 C 6,9 km/h (2 Bft)
14.02.2016 22:00 2,4 C 95 % 997,8 hPa 0,3 l/m 2,9 km/h (1 Bft) O-NO 1,7 C 2,4 C 6,8 km/h (2 Bft)
14.02.2016 23:00 2,2 C 95 % 998,4 hPa 0,0 l/m 2,2 km/h (1 Bft) O-NO 1,5 C 2,2 C 5,1 km/h (1 Bft)
Min-Datum _ 12.02.16 08.02.16 14.02.16 - 14.02.16 - 12.02.16 10.02.16 13.02.16
_ Min-Zeit 08:00 12:00 01:05 - 11:09 - 08:00 00:12 08:10
Minimum _ -1,9 C 64 % 986,8 hPa - 0,0 km/h (0 Bft) - -2,6 C -6,6 C 0,0 km/h (0 Bft)
Max-Datum _ 08.02.16 13.02.16 08.02.16 08.02.16 08.02.16 - 09.02.16 08.02.16 08.02.16
_ Max-Zeit 12:00 21:50 00:05 18:35 14:56 - 15:20 12:01 14:56
Maximum _ 10,2 C 97 % 1012,3 hPa 10,2 l/m 27,4 km/h
O-NO (5 Bft)
- 6,3 C 9,1 C 51,5 km/h
NO (7 Bft)
Durchschnitt _ 2,7 C 90 % 999,3 hPa #83,1 l/m 5,1 km/h (1 Bft) O-NO 1,2 C 1,9 C 11,6 km/h (2 Bft)